Terminal Aerodrome Forecast
Issued by NWS

Home | Current Version | Previous Version | Text Only | Print | Product List | Glossary On
Versions: 1 2 3 4 5 6 7 8 9 10 11 12 13 14 15
000
FTUS45 KRIW 181700
TAFBPI
TAF
KBPI 181720Z 1818/1918 VRB05KT P6SM SCT110
     FM181900 20007KT P6SM SCT100
     FM190000 26007KT P6SM VCSH SCT100 BKN140
     FM190400 35005KT P6SM VCSH BKN100
     FM191200 VRB06KT P6SM SCT080=

USA.gov is the U.S. government's official web portal to all federal, state and local government web resources and services.